sensor_id;sensor_type;location;lat;lon;timestamp;pressure;altitude;pressure_sealevel;temperature
75273;BMP280;63869;52.344;16.928;2022-11-15T00:01:23;100925.59;;;5.67
75273;BMP280;63869;52.344;16.928;2022-11-15T00:03:51;100925.59;;;5.67
75273;BMP280;63869;52.344;16.928;2022-11-15T00:06:16;100908.81;;;5.59
75273;BMP280;63869;52.344;16.928;2022-11-15T00:08:41;100918.72;;;5.62
75273;BMP280;63869;52.344;16.928;2022-11-15T00:11:10;100904.91;;;5.49
75273;BMP280;63869;52.344;16.928;2022-11-15T00:13:35;100918.69;;;5.58
75273;BMP280;63869;52.344;16.928;2022-11-15T00:16:01;100919.06;;;5.57
75273;BMP280;63869;52.344;16.928;2022-11-15T00:18:28;100915.59;;;5.53
75273;BMP280;63869;52.344;16.928;2022-11-15T00:20:53;100908.25;;;5.43
75273;BMP280;63869;52.344;16.928;2022-11-15T00:23:18;100905.56;;;5.39
75273;BMP280;63869;52.344;16.928;2022-11-15T00:25:44;100903.69;;;5.40
75273;BMP280;63869;52.344;16.928;2022-11-15T00:28:09;100900.69;;;5.45
75273;BMP280;63869;52.344;16.928;2022-11-15T00:30:34;100895.03;;;5.46
75273;BMP280;63869;52.344;16.928;2022-11-15T00:33:06;100888.25;;;5.49
75273;BMP280;63869;52.344;16.928;2022-11-15T00:35:33;100900.50;;;5.57
75273;BMP280;63869;52.344;16.928;2022-11-15T00:37:59;100886.34;;;5.49
75273;BMP280;63869;52.344;16.928;2022-11-15T00:40:24;100898.56;;;5.54
75273;BMP280;63869;52.344;16.928;2022-11-15T00:42:50;100893.94;;;5.51
75273;BMP280;63869;52.344;16.928;2022-11-15T00:45:15;100892.81;;;5.52
75273;BMP280;63869;52.344;16.928;2022-11-15T00:47:40;100896.72;;;5.58
75273;BMP280;63869;52.344;16.928;2022-11-15T00:50:06;100876.09;;;5.48
75273;BMP280;63869;52.344;16.928;2022-11-15T00:52:31;100901.28;;;5.61
75273;BMP280;63869;52.344;16.928;2022-11-15T00:54:56;100891.41;;;5.58
75273;BMP280;63869;52.344;16.928;2022-11-15T00:57:22;100899.03;;;5.63
75273;BMP280;63869;52.344;16.928;2022-11-15T00:59:47;100895.56;;;5.59
75273;BMP280;63869;52.344;16.928;2022-11-15T01:02:12;100893.69;;;5.59
75273;BMP280;63869;52.344;16.928;2022-11-15T01:04:38;100885.72;;;5.56
75273;BMP280;63869;52.344;16.928;2022-11-15T01:07:04;100881.56;;;5.58
75273;BMP280;63869;52.344;16.928;2022-11-15T01:09:29;100872.09;;;5.57
75273;BMP280;63869;52.344;16.928;2022-11-15T01:11:54;100880.81;;;5.58
75273;BMP280;63869;52.344;16.928;2022-11-15T01:14:20;100873.63;;;5.62
75273;BMP280;63869;52.344;16.928;2022-11-15T01:16:45;100878.63;;;5.67
75273;BMP280;63869;52.344;16.928;2022-11-15T01:19:10;100874.13;;;5.71
75273;BMP280;63869;52.344;16.928;2022-11-15T01:21:36;100870.75;;;5.74
75273;BMP280;63869;52.344;16.928;2022-11-15T01:24:01;100865.81;;;5.73
75273;BMP280;63869;52.344;16.928;2022-11-15T01:26:26;100860.88;;;5.75
75273;BMP280;63869;52.344;16.928;2022-11-15T01:28:52;100858.59;;;5.70
75273;BMP280;63869;52.344;16.928;2022-11-15T01:31:19;100859.75;;;5.72
75273;BMP280;63869;52.344;16.928;2022-11-15T01:33:45;100860.13;;;5.71
75273;BMP280;63869;52.344;16.928;2022-11-15T01:36:14;100848.34;;;5.68
75273;BMP280;63869;52.344;16.928;2022-11-15T01:38:40;100849.16;;;5.72
75273;BMP280;63869;52.344;16.928;2022-11-15T01:41:05;100849.53;;;5.74
75273;BMP280;63869;52.344;16.928;2022-11-15T01:43:33;100851.44;;;5.74
75273;BMP280;63869;52.344;16.928;2022-11-15T01:46:06;100838.50;;;5.69
75273;BMP280;63869;52.344;16.928;2022-11-15T01:48:36;100833.19;;;5.69
75273;BMP280;63869;52.344;16.928;2022-11-15T01:51:08;100842.69;;;5.70
75273;BMP280;63869;52.344;16.928;2022-11-15T01:53:35;100835.88;;;5.72
75273;BMP280;63869;52.344;16.928;2022-11-15T01:56:06;100825.28;;;5.72
75273;BMP280;63869;52.344;16.928;2022-11-15T01:58:32;100833.28;;;5.79
75273;BMP280;63869;52.344;16.928;2022-11-15T02:00:58;100828.34;;;5.78
75273;BMP280;63869;52.344;16.928;2022-11-15T02:03:29;100821.53;;;5.80
75273;BMP280;63869;52.344;16.928;2022-11-15T02:05:57;100814.31;;;5.77
75273;BMP280;63869;52.344;16.928;2022-11-15T02:08:22;100805.94;;;5.75
75273;BMP280;63869;52.344;16.928;2022-11-15T02:10:48;100817.41;;;5.83
75273;BMP280;63869;52.344;16.928;2022-11-15T02:13:17;100818.97;;;5.87
75273;BMP280;63869;52.344;16.928;2022-11-15T02:16:01;100822.75;;;5.90
75273;BMP280;63869;52.344;16.928;2022-11-15T02:18:34;100821.63;;;5.91
75273;BMP280;63869;52.344;16.928;2022-11-15T02:21:33;100822.41;;;5.91
75273;BMP280;63869;52.344;16.928;2022-11-15T02:29:24;100824.69;;;5.93
75273;BMP280;63869;52.344;16.928;2022-11-15T02:32:07;100775.53;;;5.66
75273;BMP280;63869;52.344;16.928;2022-11-15T02:34:50;100806.00;;;5.82
75273;BMP280;63869;52.344;16.928;2022-11-15T02:37:58;100810.63;;;5.85
75273;BMP280;63869;52.344;16.928;2022-11-15T02:43:08;100812.81;;;5.80
75273;BMP280;63869;52.344;16.928;2022-11-15T02:46:00;100811.25;;;5.72
75273;BMP280;63869;52.344;16.928;2022-11-15T02:48:26;100809.66;;;5.67
75273;BMP280;63869;52.344;16.928;2022-11-15T02:50:52;100809.97;;;5.58
75273;BMP280;63869;52.344;16.928;2022-11-15T02:53:17;100807.28;;;5.55
75273;BMP280;63869;52.344;16.928;2022-11-15T02:55:50;100790.47;;;5.44
75273;BMP280;63869;52.344;16.928;2022-11-15T02:58:23;100802.63;;;5.48
75273;BMP280;63869;52.344;16.928;2022-11-15T03:03:53;100772.88;;;5.28
75273;BMP280;63869;52.344;16.928;2022-11-15T03:06:42;100788.19;;;5.42
75273;BMP280;63869;52.344;16.928;2022-11-15T03:09:34;100763.78;;;5.26
75273;BMP280;63869;52.344;16.928;2022-11-15T03:12:07;100776.31;;;5.32
75273;BMP280;63869;52.344;16.928;2022-11-15T03:15:00;100775.91;;;5.30
75273;BMP280;63869;52.344;16.928;2022-11-15T03:17:56;100774.44;;;5.33
75273;BMP280;63869;52.344;16.928;2022-11-15T03:20:25;100735.16;;;5.05
75273;BMP280;63869;52.344;16.928;2022-11-15T03:22:54;100742.25;;;5.01
75273;BMP280;63869;52.344;16.928;2022-11-15T03:25:22;100765.69;;;5.29
75273;BMP280;63869;52.344;16.928;2022-11-15T03:27:52;100758.09;;;5.27
75273;BMP280;63869;52.344;16.928;2022-11-15T03:30:18;100763.84;;;5.33
75273;BMP280;63869;52.344;16.928;2022-11-15T03:32:47;100742.53;;;5.22
75273;BMP280;63869;52.344;16.928;2022-11-15T03:35:17;100760.13;;;5.38
75273;BMP280;63869;52.344;16.928;2022-11-15T03:37:53;100759.00;;;5.39
75273;BMP280;63869;52.344;16.928;2022-11-15T03:40:25;100748.41;;;5.39
75273;BMP280;63869;52.344;16.928;2022-11-15T03:43:18;100760.25;;;5.52
75273;BMP280;63869;52.344;16.928;2022-11-15T03:45:51;100750.38;;;5.49
75273;BMP280;63869;52.344;16.928;2022-11-15T03:48:24;100754.91;;;5.48
75273;BMP280;63869;52.344;16.928;2022-11-15T03:50:50;100755.25;;;5.47
75273;BMP280;63869;52.344;16.928;2022-11-15T03:53:16;100764.38;;;5.49
75273;BMP280;63869;52.344;16.928;2022-11-15T03:55:42;100765.97;;;5.54
75273;BMP280;63869;52.344;16.928;2022-11-15T03:58:07;100764.13;;;5.58
75273;BMP280;63869;52.344;16.928;2022-11-15T04:00:32;100755.00;;;5.59
75273;BMP280;63869;52.344;16.928;2022-11-15T04:02:58;100750.44;;;5.52
75273;BMP280;63869;52.344;16.928;2022-11-15T04:05:23;100756.91;;;5.55
75273;BMP280;63869;52.344;16.928;2022-11-15T04:07:49;100762.50;;;5.50
75273;BMP280;63869;52.344;16.928;2022-11-15T04:10:14;100769.69;;;5.49
75273;BMP280;63869;52.344;16.928;2022-11-15T04:12:42;100762.56;;;5.53
75273;BMP280;63869;52.344;16.928;2022-11-15T04:15:09;100765.25;;;5.57
75273;BMP280;63869;52.344;16.928;2022-11-15T04:17:43;100764.13;;;5.58
75273;BMP280;63869;52.344;16.928;2022-11-15T04:20:21;100742.50;;;5.56
75273;BMP280;63869;52.344;16.928;2022-11-15T04:23:08;100710.91;;;5.44
75273;BMP280;63869;52.344;16.928;2022-11-15T04:25:54;100733.81;;;5.59
75273;BMP280;63869;52.344;16.928;2022-11-15T04:28:20;100745.28;;;5.70
75273;BMP280;63869;52.344;16.928;2022-11-15T04:30:45;100747.56;;;5.68
75273;BMP280;63869;52.344;16.928;2022-11-15T04:33:11;100744.91;;;5.68
75273;BMP280;63869;52.344;16.928;2022-11-15T04:35:36;100741.47;;;5.68
75273;BMP280;63869;52.344;16.928;2022-11-15T04:38:03;100749.78;;;5.66
75273;BMP280;63869;52.344;16.928;2022-11-15T04:40:28;100752.84;;;5.68
75273;BMP280;63869;52.344;16.928;2022-11-15T04:42:54;100736.13;;;5.64
75273;BMP280;63869;52.344;16.928;2022-11-15T04:45:19;100734.19;;;5.61
75273;BMP280;63869;52.344;16.928;2022-11-15T04:47:45;100746.72;;;5.64
75273;BMP280;63869;52.344;16.928;2022-11-15T04:50:11;100749.06;;;5.69
75273;BMP280;63869;52.344;16.928;2022-11-15T04:52:41;100743.81;;;5.73
75273;BMP280;63869;52.344;16.928;2022-11-15T04:55:08;100740.78;;;5.74
75273;BMP280;63869;52.344;16.928;2022-11-15T04:57:34;100746.13;;;5.81
75273;BMP280;63869;52.344;16.928;2022-11-15T04:59:59;100735.47;;;5.78
75273;BMP280;63869;52.344;16.928;2022-11-15T05:02:24;100732.56;;;5.86
75273;BMP280;63869;52.344;16.928;2022-11-15T05:05:09;100728.00;;;5.87
75273;BMP280;63869;52.344;16.928;2022-11-15T05:07:35;100725.63;;;5.78
75273;BMP280;63869;52.344;16.928;2022-11-15T05:10:00;100724.47;;;5.76
75273;BMP280;63869;52.344;16.928;2022-11-15T05:12:25;100736.25;;;5.78
75273;BMP280;63869;52.344;16.928;2022-11-15T05:14:50;100726.00;;;5.73
75273;BMP280;63869;52.344;16.928;2022-11-15T05:17:16;100707.28;;;5.59
75273;BMP280;63869;52.344;16.928;2022-11-15T05:19:41;100720.53;;;5.59
75273;BMP280;63869;52.344;16.928;2022-11-15T05:22:06;100715.25;;;5.59
75273;BMP280;63869;52.344;16.928;2022-11-15T05:24:31;100723.56;;;5.54
75273;BMP280;63869;52.344;16.928;2022-11-15T05:26:57;100713.97;;;5.46
75273;BMP280;63869;52.344;16.928;2022-11-15T05:29:22;100715.09;;;5.45
75273;BMP280;63869;52.344;16.928;2022-11-15T05:31:47;100708.63;;;5.39
75273;BMP280;63869;52.344;16.928;2022-11-15T05:34:13;100700.72;;;5.42
75273;BMP280;63869;52.344;16.928;2022-11-15T05:36:42;100711.81;;;5.55
75273;BMP280;63869;52.344;16.928;2022-11-15T05:39:10;100708.03;;;5.56
75273;BMP280;63869;52.344;16.928;2022-11-15T05:41:43;100701.22;;;5.55
75273;BMP280;63869;52.344;16.928;2022-11-15T05:44:10;100708.03;;;5.59
75273;BMP280;63869;52.344;16.928;2022-11-15T05:46:36;100712.09;;;5.46
75273;BMP280;63869;52.344;16.928;2022-11-15T05:49:05;100715.75;;;5.35
75273;BMP280;63869;52.344;16.928;2022-11-15T05:51:31;100739.72;;;5.42
75273;BMP280;63869;52.344;16.928;2022-11-15T05:53:58;100708.50;;;5.28
75273;BMP280;63869;52.344;16.928;2022-11-15T05:56:24;100716.22;;;5.40
75273;BMP280;63869;52.344;16.928;2022-11-15T05:58:52;100726.13;;;5.50
75273;BMP280;63869;52.344;16.928;2022-11-15T06:01:17;100726.59;;;5.56
75273;BMP280;63869;52.344;16.928;2022-11-15T06:03:43;100713.34;;;5.56
75273;BMP280;63869;52.344;16.928;2022-11-15T06:06:08;100710.28;;;5.54
75273;BMP280;63869;52.344;16.928;2022-11-15T06:08:33;100717.81;;;5.52
75273;BMP280;63869;52.344;16.928;2022-11-15T06:11:03;100718.94;;;5.51
75273;BMP280;63869;52.344;16.928;2022-11-15T06:13:29;100718.56;;;5.49
75273;BMP280;63869;52.344;16.928;2022-11-15T06:15:55;100727.25;;;5.49
75273;BMP280;63869;52.344;16.928;2022-11-15T06:18:21;100732.16;;;5.47
75273;BMP280;63869;52.344;16.928;2022-11-15T06:20:46;100724.19;;;5.40
75273;BMP280;63869;52.344;16.928;2022-11-15T06:23:12;100716.63;;;5.46
75273;BMP280;63869;52.344;16.928;2022-11-15T06:25:38;100707.09;;;5.38
75273;BMP280;63869;52.344;16.928;2022-11-15T06:28:03;100717.38;;;5.46
75273;BMP280;63869;52.344;16.928;2022-11-15T06:30:28;100715.13;;;5.48
75273;BMP280;63869;52.344;16.928;2022-11-15T06:33:04;100709.16;;;5.55
75273;BMP280;63869;52.344;16.928;2022-11-15T06:35:32;100730.81;;;5.64
75273;BMP280;63869;52.344;16.928;2022-11-15T06:38:05;100722.44;;;5.55
75273;BMP280;63869;52.344;16.928;2022-11-15T06:40:34;100722.06;;;5.56
75273;BMP280;63869;52.344;16.928;2022-11-15T06:43:00;100708.78;;;5.53
75273;BMP280;63869;52.344;16.928;2022-11-15T06:45:26;100727.03;;;5.65
75273;BMP280;63869;52.344;16.928;2022-11-15T06:47:51;100734.31;;;5.72
75273;BMP280;63869;52.344;16.928;2022-11-15T06:50:17;100733.97;;;5.73
75273;BMP280;63869;52.344;16.928;2022-11-15T06:52:42;100739.69;;;5.82
75273;BMP280;63869;52.344;16.928;2022-11-15T06:55:08;100731.34;;;5.80
75273;BMP280;63869;52.344;16.928;2022-11-15T06:57:33;100734.09;;;5.87
75273;BMP280;63869;52.344;16.928;2022-11-15T06:59:59;100739.03;;;5.92
75273;BMP280;63869;52.344;16.928;2022-11-15T07:02:24;100748.50;;;5.93
75273;BMP280;63869;52.344;16.928;2022-11-15T07:04:50;100744.00;;;5.97
75273;BMP280;63869;52.344;16.928;2022-11-15T07:07:16;100744.00;;;5.97
75273;BMP280;63869;52.344;16.928;2022-11-15T07:09:42;100748.59;;;6.04
75273;BMP280;63869;52.344;16.928;2022-11-15T07:12:07;100740.25;;;6.06
75273;BMP280;63869;52.344;16.928;2022-11-15T07:14:32;100735.78;;;6.13
75273;BMP280;63869;52.344;16.928;2022-11-15T07:16:58;100748.78;;;6.29
75273;BMP280;63869;52.344;16.928;2022-11-15T07:19:23;100741.59;;;6.33
75273;BMP280;63869;52.344;16.928;2022-11-15T07:21:48;100735.84;;;6.24
75273;BMP280;63869;52.344;16.928;2022-11-15T07:24:13;100724.44;;;6.20
75273;BMP280;63869;52.344;16.928;2022-11-15T07:26:39;100712.66;;;6.14
75273;BMP280;63869;52.344;16.928;2022-11-15T07:29:04;100735.09;;;6.27
75273;BMP280;63869;52.344;16.928;2022-11-15T07:31:31;100744.25;;;6.33
75273;BMP280;63869;52.344;16.928;2022-11-15T07:33:56;100732.03;;;6.21
75273;BMP280;63869;52.344;16.928;2022-11-15T07:36:21;100735.16;;;6.34
75273;BMP280;63869;52.344;16.928;2022-11-15T07:38:47;100742.78;;;6.39
75273;BMP280;63869;52.344;16.928;2022-11-15T07:41:12;100750.41;;;6.44
75273;BMP280;63869;52.344;16.928;2022-11-15T07:43:37;100739.38;;;6.46
75273;BMP280;63869;52.344;16.928;2022-11-15T07:46:07;100715.47;;;6.39
75273;BMP280;63869;52.344;16.928;2022-11-15T07:48:38;100738.75;;;6.63
75273;BMP280;63869;52.344;16.928;2022-11-15T07:51:06;100725.84;;;6.65
75273;BMP280;63869;52.344;16.928;2022-11-15T07:53:32;100712.56;;;6.72
75273;BMP280;63869;52.344;16.928;2022-11-15T07:55:57;100729.34;;;6.83
75273;BMP280;63869;52.344;16.928;2022-11-15T07:58:23;100710.75;;;6.87
75273;BMP280;63869;52.344;16.928;2022-11-15T08:00:48;100716.84;;;6.91
75273;BMP280;63869;52.344;16.928;2022-11-15T08:03:15;100736.25;;;7.02
75273;BMP280;63869;52.344;16.928;2022-11-15T08:05:41;100735.88;;;7.07
75273;BMP280;63869;52.344;16.928;2022-11-15T08:08:09;100737.03;;;7.13
75273;BMP280;63869;52.344;16.928;2022-11-15T08:10:35;100730.59;;;7.14
75273;BMP280;63869;52.344;16.928;2022-11-15T08:13:05;100696.38;;;7.02
75273;BMP280;63869;52.344;16.928;2022-11-15T08:15:32;100720.31;;;7.23
75273;BMP280;63869;52.344;16.928;2022-11-15T08:18:02;100717.28;;;7.21
75273;BMP280;63869;52.344;16.928;2022-11-15T08:20:29;100683.84;;;7.03
75273;BMP280;63869;52.344;16.928;2022-11-15T08:22:59;100710.09;;;7.18
75273;BMP280;63869;52.344;16.928;2022-11-15T08:25:26;100714.28;;;7.26
75273;BMP280;63869;52.344;16.928;2022-11-15T08:27:53;100708.97;;;7.34
75273;BMP280;63869;52.344;16.928;2022-11-15T08:30:18;100715.41;;;7.36
75273;BMP280;63869;52.344;16.928;2022-11-15T08:32:44;100691.50;;;7.25
75273;BMP280;63869;52.344;16.928;2022-11-15T08:35:09;100696.06;;;7.32
75273;BMP280;63869;52.344;16.928;2022-11-15T08:37:34;100688.81;;;7.40
75273;BMP280;63869;52.344;16.928;2022-11-15T08:40:00;100696.06;;;7.57
75273;BMP280;63869;52.344;16.928;2022-11-15T08:42:26;100698.34;;;7.62
75273;BMP280;63869;52.344;16.928;2022-11-15T08:44:51;100689.97;;;7.71
75273;BMP280;63869;52.344;16.928;2022-11-15T08:47:16;100691.88;;;7.88
75273;BMP280;63869;52.344;16.928;2022-11-15T08:49:42;100658.81;;;7.78
75273;BMP280;63869;52.344;16.928;2022-11-15T08:52:07;100683.50;;;8.00
75273;BMP280;63869;52.344;16.928;2022-11-15T08:54:32;100686.88;;;8.15
75273;BMP280;63869;52.344;16.928;2022-11-15T08:56:57;100689.50;;;8.25
75273;BMP280;63869;52.344;16.928;2022-11-15T08:59:23;100689.13;;;8.27
75273;BMP280;63869;52.344;16.928;2022-11-15T09:01:48;100672.38;;;8.26
75273;BMP280;63869;52.344;16.928;2022-11-15T09:04:13;100686.06;;;8.28
75273;BMP280;63869;52.344;16.928;2022-11-15T09:06:39;100671.63;;;8.19
75273;BMP280;63869;52.344;16.928;2022-11-15T09:09:04;100681.53;;;8.25
75273;BMP280;63869;52.344;16.928;2022-11-15T09:11:29;100680.00;;;8.24
75273;BMP280;63869;52.344;16.928;2022-11-15T09:13:55;100677.72;;;8.26
75273;BMP280;63869;52.344;16.928;2022-11-15T09:16:20;100679.19;;;8.35
75273;BMP280;63869;52.344;16.928;2022-11-15T09:18:45;100673.13;;;8.27
75273;BMP280;63869;52.344;16.928;2022-11-15T09:21:11;100677.31;;;8.28
75273;BMP280;63869;52.344;16.928;2022-11-15T09:23:36;100678.88;;;8.22
75273;BMP280;63869;52.344;16.928;2022-11-15T09:26:03;100664.81;;;8.21
75273;BMP280;63869;52.344;16.928;2022-11-15T09:28:30;100675.81;;;8.23
75273;BMP280;63869;52.344;16.928;2022-11-15T09:30:57;100679.22;;;8.27
75273;BMP280;63869;52.344;16.928;2022-11-15T09:33:23;100659.06;;;8.30
75273;BMP280;63869;52.344;16.928;2022-11-15T09:35:48;100679.16;;;8.45
75273;BMP280;63869;52.344;16.928;2022-11-15T09:38:14;100668.44;;;8.63
75273;BMP280;63869;52.344;16.928;2022-11-15T09:40:39;100665.66;;;8.81
75273;BMP280;63869;52.344;16.928;2022-11-15T09:46:15;100667.09;;;8.96
75273;BMP280;63869;52.344;16.928;2022-11-15T09:48:59;100653.81;;;8.89
75273;BMP280;63869;52.344;16.928;2022-11-15T09:51:43;100662.06;;;9.05
75273;BMP280;63869;52.344;16.928;2022-11-15T09:54:31;100665.00;;;9.21
75273;BMP280;63869;52.344;16.928;2022-11-15T09:57:14;100656.66;;;9.12
75273;BMP280;63869;52.344;16.928;2022-11-15T10:05:11;100670.28;;;9.28
75273;BMP280;63869;52.344;16.928;2022-11-15T10:10:20;100659.09;;;9.48
75273;BMP280;63869;52.344;16.928;2022-11-15T10:12:49;100658.66;;;9.53
75273;BMP280;63869;52.344;16.928;2022-11-15T10:15:17;100627.06;;;9.44
75273;BMP280;63869;52.344;16.928;2022-11-15T10:17:55;100647.91;;;9.60
75273;BMP280;63869;52.344;16.928;2022-11-15T10:20:27;100650.94;;;9.65
75273;BMP280;63869;52.344;16.928;2022-11-15T10:23:01;100642.50;;;9.67
75273;BMP280;63869;52.344;16.928;2022-11-15T10:25:29;100653.09;;;9.78
75273;BMP280;63869;52.344;16.928;2022-11-15T10:27:57;100646.84;;;9.88
75273;BMP280;63869;52.344;16.928;2022-11-15T10:30:30;100628.91;;;9.88
75273;BMP280;63869;52.344;16.928;2022-11-15T10:32:55;100632.53;;;10.05
75273;BMP280;63869;52.344;16.928;2022-11-15T10:35:23;100642.06;;;10.10
75273;BMP280;63869;52.344;16.928;2022-11-15T10:37:48;100632.53;;;10.05
75273;BMP280;63869;52.344;16.928;2022-11-15T10:40:18;100632.13;;;10.10
75273;BMP280;63869;52.344;16.928;2022-11-15T10:42:44;100640.09;;;10.14
75273;BMP280;63869;52.344;16.928;2022-11-15T10:45:27;100635.97;;;10.09
75273;BMP280;63869;52.344;16.928;2022-11-15T10:47:53;100639.78;;;10.05
75273;BMP280;63869;52.344;16.928;2022-11-15T10:50:32;100617.78;;;9.97
75273;BMP280;63869;52.344;16.928;2022-11-15T10:52:58;100621.84;;;10.09
75273;BMP280;63869;52.344;16.928;2022-11-15T10:55:28;100632.44;;;10.16
75273;BMP280;63869;52.344;16.928;2022-11-15T10:58:33;100629.28;;;10.21
75273;BMP280;63869;52.344;16.928;2022-11-15T11:01:19;100601.25;;;10.06
75273;BMP280;63869;52.344;16.928;2022-11-15T11:04:04;100613.72;;;10.16
75273;BMP280;63869;52.344;16.928;2022-11-15T11:06:30;100618.13;;;10.29
75273;BMP280;63869;52.344;16.928;2022-11-15T11:11:23;100598.13;;;10.41
75273;BMP280;63869;52.344;16.928;2022-11-15T11:13:48;100589.63;;;10.46
75273;BMP280;63869;52.344;16.928;2022-11-15T11:18:56;100601.22;;;10.36
75273;BMP280;63869;52.344;16.928;2022-11-15T11:24:41;100602.84;;;10.30
75273;BMP280;63869;52.344;16.928;2022-11-15T11:30:21;100600.56;;;10.55
75273;BMP280;63869;52.344;16.928;2022-11-15T11:33:17;100593.28;;;10.59
75273;BMP280;63869;52.344;16.928;2022-11-15T11:38:51;100595.75;;;10.47
75273;BMP280;63869;52.344;16.928;2022-11-15T11:44:06;100571.13;;;10.32
75273;BMP280;63869;52.344;16.928;2022-11-15T11:49:16;100572.72;;;10.56
75273;BMP280;63869;52.344;16.928;2022-11-15T11:51:50;100567.22;;;10.63
75273;BMP280;63869;52.344;16.928;2022-11-15T11:57:32;100566.78;;;10.68
75273;BMP280;63869;52.344;16.928;2022-11-15T12:02:35;100534.75;;;10.38
75273;BMP280;63869;52.344;16.928;2022-11-15T12:05:09;100534.88;;;10.31
75273;BMP280;63869;52.344;16.928;2022-11-15T12:07:37;100553.59;;;10.31
75273;BMP280;63869;52.344;16.928;2022-11-15T12:10:15;100514.59;;;10.07
75273;BMP280;63869;52.344;16.928;2022-11-15T12:13:05;100537.75;;;10.17
75273;BMP280;63869;52.344;16.928;2022-11-15T12:15:37;100544.38;;;10.09
75273;BMP280;63869;52.344;16.928;2022-11-15T12:18:04;100542.84;;;10.08
75273;BMP280;63869;52.344;16.928;2022-11-15T12:20:39;100531.91;;;9.98
75273;BMP280;63869;52.344;16.928;2022-11-15T12:23:17;100535.97;;;10.10
75273;BMP280;63869;52.344;16.928;2022-11-15T12:31:11;100528.75;;;10.04
75273;BMP280;63869;52.344;16.928;2022-11-15T12:33:43;100517.75;;;10.02
75273;BMP280;63869;52.344;16.928;2022-11-15T12:36:11;100525.97;;;10.14
75273;BMP280;63869;52.344;16.928;2022-11-15T12:41:21;100522.63;;;10.07
75273;BMP280;63869;52.344;16.928;2022-11-15T12:43:47;100519.94;;;10.07
75273;BMP280;63869;52.344;16.928;2022-11-15T12:46:25;100534.81;;;10.08
75273;BMP280;63869;52.344;16.928;2022-11-15T13:00:00;100526.56;;;9.98
75273;BMP280;63869;52.344;16.928;2022-11-15T13:02:40;100525.50;;;9.92
75273;BMP280;63869;52.344;16.928;2022-11-15T13:17:53;100493.72;;;9.71
75273;BMP280;63869;52.344;16.928;2022-11-15T13:20:30;100494.59;;;9.61
75273;BMP280;63869;52.344;16.928;2022-11-15T13:23:11;100467.94;;;9.27
75273;BMP280;63869;52.344;16.928;2022-11-15T13:25:55;100474.47;;;9.22
75273;BMP280;63869;52.344;16.928;2022-11-15T13:28:57;100490.53;;;9.19
75273;BMP280;63869;52.344;16.928;2022-11-15T13:31:44;100491.69;;;9.18
75273;BMP280;63869;52.344;16.928;2022-11-15T13:34:31;100479.91;;;9.12
75273;BMP280;63869;52.344;16.928;2022-11-15T13:37:01;100470.13;;;8.98
75273;BMP280;63869;52.344;16.928;2022-11-15T13:41:52;100482.25;;;9.06
75273;BMP280;63869;52.344;16.928;2022-11-15T13:44:23;100478.88;;;9.02
75273;BMP280;63869;52.344;16.928;2022-11-15T13:46:48;100477.72;;;9.03
75273;BMP280;63869;52.344;16.928;2022-11-15T13:49:29;100483.03;;;9.03
75273;BMP280;63869;52.344;16.928;2022-11-15T13:51:55;100456.50;;;8.92
75273;BMP280;63869;52.344;16.928;2022-11-15T13:54:23;100480.81;;;9.02
75273;BMP280;63869;52.344;16.928;2022-11-15T13:56:53;100463.00;;;8.88
75273;BMP280;63869;52.344;16.928;2022-11-15T13:59:37;100474.72;;;9.01
75273;BMP280;63869;52.344;16.928;2022-11-15T14:02:17;100475.88;;;8.93
75273;BMP280;63869;52.344;16.928;2022-11-15T14:05:01;100473.34;;;8.82
75273;BMP280;63869;52.344;16.928;2022-11-15T14:07:28;100476.44;;;8.74
75273;BMP280;63869;52.344;16.928;2022-11-15T14:09:54;100467.00;;;8.69
75273;BMP280;63869;52.344;16.928;2022-11-15T14:12:31;100469.66;;;8.66
75273;BMP280;63869;52.344;16.928;2022-11-15T14:15:17;100461.38;;;8.56
75273;BMP280;63869;52.344;16.928;2022-11-15T14:17:43;100455.41;;;8.42
75273;BMP280;63869;52.344;16.928;2022-11-15T14:22:55;100471.41;;;8.42
75273;BMP280;63869;52.344;16.928;2022-11-15T14:25:23;100459.25;;;8.34
75273;BMP280;63869;52.344;16.928;2022-11-15T14:30:34;100447.16;;;8.22
75273;BMP280;63869;52.344;16.928;2022-11-15T14:32:59;100444.91;;;8.17
75273;BMP280;63869;52.344;16.928;2022-11-15T14:35:25;100436.59;;;8.11
75273;BMP280;63869;52.344;16.928;2022-11-15T14:37:50;100447.94;;;8.19
75273;BMP280;63869;52.344;16.928;2022-11-15T14:40:18;100442.31;;;8.10
75273;BMP280;63869;52.344;16.928;2022-11-15T14:42:44;100458.94;;;8.24
75273;BMP280;63869;52.344;16.928;2022-11-15T14:45:21;100445.28;;;8.19
75273;BMP280;63869;52.344;16.928;2022-11-15T14:47:47;100447.59;;;8.13
75273;BMP280;63869;52.344;16.928;2022-11-15T14:50:17;100429.09;;;7.95
75273;BMP280;63869;52.344;16.928;2022-11-15T14:52:43;100448.78;;;8.02
75273;BMP280;63869;52.344;16.928;2022-11-15T14:55:17;100448.09;;;7.98
75273;BMP280;63869;52.344;16.928;2022-11-15T14:57:44;100449.56;;;8.02
75273;BMP280;63869;52.344;16.928;2022-11-15T15:00:11;100457.97;;;8.01
75273;BMP280;63869;52.344;16.928;2022-11-15T15:02:36;100428.72;;;7.90
75273;BMP280;63869;52.344;16.928;2022-11-15T15:07:37;100437.13;;;7.88
75273;BMP280;63869;52.344;16.928;2022-11-15T15:10:03;100434.84;;;7.83
75273;BMP280;63869;52.344;16.928;2022-11-15T15:12:28;100420.81;;;7.72
75273;BMP280;63869;52.344;16.928;2022-11-15T15:14:55;100440.53;;;7.85
75273;BMP280;63869;52.344;16.928;2022-11-15T15:17:20;100434.81;;;7.90
75273;BMP280;63869;52.344;16.928;2022-11-15T15:19:45;100438.66;;;7.89
75273;BMP280;63869;52.344;16.928;2022-11-15T15:22:17;100423.06;;;7.81
75273;BMP280;63869;52.344;16.928;2022-11-15T15:24:43;100423.50;;;7.76
75273;BMP280;63869;52.344;16.928;2022-11-15T15:27:09;100426.88;;;7.80
75273;BMP280;63869;52.344;16.928;2022-11-15T15:29:34;100413.28;;;7.67
75273;BMP280;63869;52.344;16.928;2022-11-15T15:32:00;100408.75;;;7.57
75273;BMP280;63869;52.344;16.928;2022-11-15T15:34:25;100414.81;;;7.61
75273;BMP280;63869;52.344;16.928;2022-11-15T15:37:25;100417.84;;;7.63